Time;durP1;ratioP1;P1;durP2;ratioP2;P2;SDS_P1;SDS_P2;PMS_P1;PMS_P2;Temp;Humidity;BMP_temperature;BMP_pressure;BME280_temperature;BME280_humidity;BME280_pressure;Samples;Min_cycle;Max_cycle;Signal;HPM_P1;HPM_P2
2022/09/25 00:01:02;;;;;;;44.57;40.20;;;;;;;;;;5101235;28;20433;-81
2022/09/25 00:03:31;;;;;;;45.93;41.40;;;;;;;;;;5101377;28;20460;-81
2022/09/25 00:06:02;;;;;;;46.17;41.83;;;;;;;;;;5101966;28;20499;-81
2022/09/25 00:08:29;;;;;;;41.10;37.30;;;;;;;;;;5100978;28;20433;-81
2022/09/25 00:10:57;;;;;;;42.37;38.53;;;;;;;;;;5100809;28;20453;-80
2022/09/25 00:13:26;;;;;;;46.63;40.07;;;;;;;;;;5101089;28;20497;-81
2022/09/25 00:15:54;;;;;;;42.67;38.70;;;;;;;;;;5101297;28;20444;-81
2022/09/25 00:19:48;;;;;;;43.97;40.00;;;;;;;;;;5101279;28;20517;-81
2022/09/25 00:21:11;;;;;;;41.17;37.20;;;;;;;;;;5100337;28;20962;-81
2022/09/25 00:23:38;;;;;;;41.80;37.80;;;;;;;;;;5099889;28;20476;-80
2022/09/25 00:26:06;;;;;;;40.27;36.57;;;;;;;;;;5100498;28;20962;-80
2022/09/25 00:28:36;;;;;;;38.07;34.80;;;;;;;;;;5101418;28;20476;-81
2022/09/25 00:31:04;;;;;;;36.73;33.10;;;;;;;;;;5100798;28;20782;-80
2022/09/25 00:33:31;;;;;;;38.70;35.10;;;;;;;;;;5100983;28;20451;-81
2022/09/25 00:36:03;;;;;;;38.70;35.00;;;;;;;;;;5101044;28;20427;-81
2022/09/25 00:38:31;;;;;;;35.10;32.40;;;;;;;;;;5100720;28;20423;-81
2022/09/25 00:40:58;;;;;;;34.97;31.97;;;;;;;;;;5100445;28;20588;-81
2022/09/25 00:43:38;;;;;;;36.53;33.37;;;;;;;;;;5100012;28;20463;-81
2022/09/25 00:46:07;;;;;;;37.10;34.10;;;;;;;;;;5100120;28;20438;-81
2022/09/25 00:48:35;;;;;;;34.27;31.53;;;;;;;;;;5099708;28;20441;-80
2022/09/25 00:51:02;;;;;;;36.10;32.60;;;;;;;;;;5100577;28;20420;-81
2022/09/25 00:53:32;;;;;;;34.17;31.10;;;;;;;;;;5099697;28;20854;-81
2022/09/25 00:55:59;;;;;;;33.07;30.37;;;;;;;;;;5100610;28;21104;-80
2022/09/25 00:58:29;;;;;;;33.37;30.13;;;;;;;;;;5100245;28;20458;-80
2022/09/25 01:00:58;;;;;;;33.60;30.10;;;;;;;;;;5099715;28;20438;-82
2022/09/25 01:03:26;;;;;;;30.80;28.53;;;;;;;;;;5099918;28;20490;-80
2022/09/25 01:05:53;;;;;;;32.63;29.43;;;;;;;;;;5100730;28;20419;-81
2022/09/25 01:08:23;;;;;;;33.13;29.60;;;;;;;;;;5100577;28;20513;-81
2022/09/25 01:10:50;;;;;;;32.27;29.77;;;;;;;;;;5100308;28;20419;-81
2022/09/25 01:13:18;;;;;;;29.20;26.87;;;;;;;;;;5099815;28;20477;-81
2022/09/25 01:15:49;;;;;;;29.90;27.37;;;;;;;;;;5100145;28;20467;-80
2022/09/25 01:18:24;;;;;;;31.50;29.00;;;;;;;;;;5100458;28;20792;-80
2022/09/25 01:21:00;;;;;;;31.60;28.73;;;;;;;;;;5099743;28;20444;-81
2022/09/25 01:23:36;;;;;;;32.07;29.43;;;;;;;;;;5099554;28;20492;-81
2022/09/25 01:26:12;;;;;;;31.50;28.90;;;;;;;;;;5101553;28;20427;-81
2022/09/25 01:28:54;;;;;;;31.60;29.37;;;;;;;;;;5102526;28;20402;-80
2022/09/25 01:31:26;;;;;;;30.10;27.20;;;;;;;;;;5101588;28;20436;-81
2022/09/25 01:33:56;;;;;;;29.50;27.00;;;;;;;;;;5101275;28;20439;-81
2022/09/25 01:36:26;;;;;;;30.53;28.00;;;;;;;;;;5101269;28;20412;-80
2022/09/25 01:38:56;;;;;;;32.47;29.87;;;;;;;;;;5101674;28;20444;-80
2022/09/25 01:41:24;;;;;;;31.17;27.97;;;;;;;;;;5100672;28;20441;-81
2022/09/25 01:43:57;;;;;;;30.97;27.97;;;;;;;;;;5099863;28;20445;-80
2022/09/25 01:46:27;;;;;;;28.80;26.63;;;;;;;;;;5099359;28;20445;-80
2022/09/25 01:48:56;;;;;;;32.10;28.83;;;;;;;;;;5099352;28;20765;-81
2022/09/25 01:51:26;;;;;;;30.83;28.53;;;;;;;;;;5099201;28;20420;-81
2022/09/25 01:53:55;;;;;;;31.93;29.07;;;;;;;;;;5098830;28;20513;-80
2022/09/25 01:56:31;;;;;;;30.33;27.70;;;;;;;;;;5098960;28;20454;-80
2022/09/25 01:59:04;;;;;;;29.73;27.20;;;;;;;;;;5097871;28;20472;-80
2022/09/25 02:01:34;;;;;;;29.50;27.03;;;;;;;;;;5099055;28;20410;-81
2022/09/25 02:04:04;;;;;;;28.47;26.23;;;;;;;;;;5099097;28;21011;-81
2022/09/25 02:06:31;;;;;;;29.97;27.23;;;;;;;;;;5098811;28;20434;-81
2022/09/25 02:09:01;;;;;;;28.80;26.57;;;;;;;;;;5098835;28;20461;-80
2022/09/25 02:11:31;;;;;;;29.20;26.60;;;;;;;;;;5098524;28;20960;-81
2022/09/25 02:13:59;;;;;;;27.73;25.53;;;;;;;;;;5099142;28;20464;-80
2022/09/25 02:16:28;;;;;;;30.47;27.90;;;;;;;;;;5098666;28;20523;-81
2022/09/25 02:21:45;;;;;;;28.07;26.07;;;;;;;;;;5098322;28;20445;-81
2022/09/25 02:24:17;;;;;;;30.13;27.83;;;;;;;;;;5098051;28;20470;-81
2022/09/25 02:26:44;;;;;;;29.37;26.87;;;;;;;;;;5098362;28;20984;-80
2022/09/25 02:29:12;;;;;;;31.30;28.20;;;;;;;;;;5098451;28;20427;-81
2022/09/25 02:31:43;;;;;;;29.33;26.93;;;;;;;;;;5098106;28;20441;-81
2022/09/25 02:34:11;;;;;;;29.60;27.13;;;;;;;;;;5098099;28;20472;-80
2022/09/25 02:36:38;;;;;;;30.13;27.63;;;;;;;;;;5098648;28;20419;-80
2022/09/25 02:39:07;;;;;;;28.40;26.30;;;;;;;;;;5098015;28;20515;-81
2022/09/25 02:41:58;;;;;;;29.60;27.23;;;;;;;;;;5097745;28;20444;-82
2022/09/25 02:44:32;;;;;;;33.00;30.30;;;;;;;;;;5083573;28;20445;-80
2022/09/25 02:47:06;;;;;;;32.00;29.10;;;;;;;;;;5098096;28;20443;-80
2022/09/25 02:49:37;;;;;;;34.37;31.23;;;;;;;;;;5098118;28;20932;-81
2022/09/25 02:52:07;;;;;;;33.73;30.80;;;;;;;;;;5096971;28;20448;-80
2022/09/25 02:54:37;;;;;;;33.87;30.27;;;;;;;;;;5098007;28;20460;-80
2022/09/25 02:57:07;;;;;;;33.03;30.07;;;;;;;;;;5098043;28;20414;-80
2022/09/25 02:59:37;;;;;;;32.23;29.70;;;;;;;;;;5098067;28;20444;-80
2022/09/25 03:02:05;;;;;;;30.93;28.53;;;;;;;;;;5097245;28;20469;-81
2022/09/25 03:04:36;;;;;;;31.33;28.27;;;;;;;;;;5097899;28;20449;-81
2022/09/25 03:07:03;;;;;;;31.50;28.63;;;;;;;;;;5097885;28;20448;-81
2022/09/25 03:09:34;;;;;;;31.90;29.30;;;;;;;;;;5097681;28;20426;-80
2022/09/25 03:12:02;;;;;;;32.97;30.33;;;;;;;;;;5097451;28;20432;-80
2022/09/25 03:14:30;;;;;;;31.80;28.90;;;;;;;;;;5097916;28;20454;-80
2022/09/25 03:16:58;;;;;;;32.23;28.97;;;;;;;;;;5098037;28;20780;-81
2022/09/25 03:19:28;;;;;;;30.63;27.77;;;;;;;;;;5098081;28;20423;-81
2022/09/25 03:21:56;;;;;;;29.80;27.60;;;;;;;;;;5097525;28;20444;-80
2022/09/25 03:24:24;;;;;;;28.37;26.40;;;;;;;;;;5097399;28;20968;-81
2022/09/25 03:26:52;;;;;;;30.40;27.93;;;;;;;;;;5098400;28;20451;-81
2022/09/25 03:29:20;;;;;;;28.80;26.60;;;;;;;;;;5098034;28;20501;-80
2022/09/25 03:31:47;;;;;;;31.63;27.90;;;;;;;;;;5096755;28;20524;-81
2022/09/25 03:34:15;;;;;;;31.93;29.53;;;;;;;;;;5097195;28;20420;-80
2022/09/25 03:36:46;;;;;;;28.73;26.63;;;;;;;;;;5097904;28;20451;-80
2022/09/25 03:39:16;;;;;;;32.03;29.47;;;;;;;;;;5097792;28;20429;-81
2022/09/25 03:41:44;;;;;;;31.53;28.50;;;;;;;;;;5097011;28;20444;-81
2022/09/25 03:44:11;;;;;;;28.03;25.83;;;;;;;;;;5097444;28;20463;-80
2022/09/25 03:46:39;;;;;;;29.13;26.93;;;;;;;;;;5098073;28;20452;-81
2022/09/25 03:49:07;;;;;;;28.67;26.27;;;;;;;;;;5097729;28;20789;-80
2022/09/25 03:51:34;;;;;;;28.57;26.27;;;;;;;;;;5096916;28;20421;-80
2022/09/25 03:54:03;;;;;;;28.33;26.10;;;;;;;;;;5097652;28;20438;-80
2022/09/25 03:56:31;;;;;;;27.27;24.97;;;;;;;;;;5098133;28;20445;-80
2022/09/25 03:58:59;;;;;;;28.83;26.63;;;;;;;;;;5097443;28;20448;-80
2022/09/25 04:01:27;;;;;;;30.50;27.73;;;;;;;;;;5096948;28;20431;-80
2022/09/25 04:03:55;;;;;;;28.83;26.73;;;;;;;;;;5097479;28;20816;-81
2022/09/25 04:06:24;;;;;;;29.30;27.10;;;;;;;;;;5098003;28;20792;-80
2022/09/25 04:08:51;;;;;;;27.40;24.80;;;;;;;;;;5097495;28;20843;-81
2022/09/25 04:11:21;;;;;;;27.33;25.43;;;;;;;;;;5097224;28;20446;-81
2022/09/25 04:13:48;;;;;;;28.07;26.00;;;;;;;;;;5096942;28;20485;-81
2022/09/25 04:16:16;;;;;;;26.70;25.00;;;;;;;;;;5097585;28;20430;-80
2022/09/25 04:18:43;;;;;;;27.83;25.07;;;;;;;;;;5096723;28;20424;-80
2022/09/25 04:21:11;;;;;;;26.60;24.53;;;;;;;;;;5096900;28;20411;-81
2022/09/25 04:23:39;;;;;;;25.70;23.37;;;;;;;;;;5099369;28;20496;-81
2022/09/25 04:26:07;;;;;;;25.00;23.30;;;;;;;;;;5100959;28;20427;-80
2022/09/25 04:28:36;;;;;;;24.90;22.87;;;;;;;;;;5100731;28;20468;-80
2022/09/25 04:31:04;;;;;;;25.13;23.17;;;;;;;;;;5100754;28;20457;-80
2022/09/25 04:33:46;;;;;;;25.33;23.50;;;;;;;;;;5100924;28;20492;-80
2022/09/25 04:36:14;;;;;;;25.37;23.40;;;;;;;;;;5100865;28;20452;-80
2022/09/25 04:38:41;;;;;;;25.33;23.63;;;;;;;;;;5100177;28;20437;-80
2022/09/25 04:41:08;;;;;;;27.87;25.57;;;;;;;;;;5100374;28;20919;-80
2022/09/25 04:43:37;;;;;;;26.13;23.70;;;;;;;;;;5101039;28;20482;-80
2022/09/25 04:46:05;;;;;;;25.60;23.70;;;;;;;;;;5100880;28;20437;-80
2022/09/25 04:48:33;;;;;;;24.30;22.47;;;;;;;;;;5100013;28;20482;-81
2022/09/25 04:51:00;;;;;;;23.90;21.90;;;;;;;;;;5099773;28;20454;-81
2022/09/25 04:53:28;;;;;;;24.87;23.17;;;;;;;;;;5100328;28;20478;-80
2022/09/25 04:55:55;;;;;;;24.47;22.53;;;;;;;;;;5100913;28;20427;-80
2022/09/25 04:58:22;;;;;;;23.57;21.90;;;;;;;;;;5100222;28;20421;-80
2022/09/25 05:00:51;;;;;;;25.27;22.93;;;;;;;;;;5100524;28;20437;-81
2022/09/25 05:03:18;;;;;;;23.87;22.30;;;;;;;;;;5099562;28;20481;-81
2022/09/25 05:05:46;;;;;;;24.23;22.13;;;;;;;;;;5100402;28;20445;-80
2022/09/25 05:08:13;;;;;;;23.33;21.43;;;;;;;;;;5099666;28;20472;-80
2022/09/25 05:10:41;;;;;;;23.73;21.83;;;;;;;;;;5100259;28;20925;-81
2022/09/25 05:13:10;;;;;;;24.23;22.40;;;;;;;;;;5099540;28;20531;-80
2022/09/25 05:15:38;;;;;;;22.33;21.03;;;;;;;;;;5100189;28;20455;-80
2022/09/25 05:18:08;;;;;;;22.17;20.77;;;;;;;;;;5100211;28;20442;-80
2022/09/25 05:20:36;;;;;;;23.13;21.83;;;;;;;;;;5100067;28;20445;-80
2022/09/25 05:23:03;;;;;;;23.77;21.43;;;;;;;;;;5099951;28;20451;-80
2022/09/25 05:25:31;;;;;;;22.03;20.17;;;;;;;;;;5095814;28;20433;-77
2022/09/25 05:27:58;;;;;;;21.53;19.73;;;;;;;;;;5095766;28;20469;-77
2022/09/25 05:30:27;;;;;;;21.20;19.87;;;;;;;;;;5095890;28;20423;-78
2022/09/25 05:32:56;;;;;;;22.97;21.30;;;;;;;;;;5095266;28;20444;-78
2022/09/25 05:35:26;;;;;;;23.20;21.30;;;;;;;;;;5095812;28;20499;-78
2022/09/25 05:37:53;;;;;;;22.37;20.83;;;;;;;;;;5095532;28;20441;-77
2022/09/25 05:40:22;;;;;;;23.00;21.03;;;;;;;;;;5095682;28;20416;-78
2022/09/25 05:42:50;;;;;;;22.40;20.27;;;;;;;;;;5094373;28;20459;-77
2022/09/25 05:45:18;;;;;;;20.97;19.37;;;;;;;;;;5095641;28;20428;-77
2022/09/25 05:47:46;;;;;;;23.37;21.33;;;;;;;;;;5095477;28;20448;-77
2022/09/25 05:50:14;;;;;;;21.63;20.20;;;;;;;;;;5095328;28;20449;-77
2022/09/25 05:52:43;;;;;;;22.57;21.10;;;;;;;;;;5094586;28;20469;-77
2022/09/25 05:55:10;;;;;;;22.73;20.70;;;;;;;;;;5095505;28;20430;-78
2022/09/25 05:57:38;;;;;;;20.53;19.27;;;;;;;;;;5095070;28;20452;-77
2022/09/25 06:00:07;;;;;;;20.17;18.73;;;;;;;;;;5095312;28;20427;-77
2022/09/25 06:02:35;;;;;;;21.27;19.67;;;;;;;;;;5094810;28;20554;-77
2022/09/25 06:05:02;;;;;;;21.13;19.37;;;;;;;;;;5095212;28;20473;-77
2022/09/25 06:07:30;;;;;;;19.60;18.30;;;;;;;;;;5095211;28;20451;-77
2022/09/25 06:09:59;;;;;;;21.13;19.40;;;;;;;;;;5094805;28;21003;-77
2022/09/25 06:12:26;;;;;;;21.33;19.77;;;;;;;;;;5094270;28;20443;-78
2022/09/25 06:14:53;;;;;;;19.87;18.37;;;;;;;;;;5095057;28;20813;-78
2022/09/25 06:17:21;;;;;;;21.87;20.20;;;;;;;;;;5095022;28;20456;-77
2022/09/25 06:19:49;;;;;;;21.90;19.90;;;;;;;;;;5094838;28;20448;-77
2022/09/25 06:22:16;;;;;;;20.17;18.73;;;;;;;;;;5094353;28;20510;-77
2022/09/25 06:24:44;;;;;;;20.00;18.80;;;;;;;;;;5094472;28;20465;-77
2022/09/25 06:27:13;;;;;;;21.10;19.20;;;;;;;;;;5094546;28;20927;-77
2022/09/25 06:29:40;;;;;;;21.77;20.57;;;;;;;;;;5094437;28;20458;-77
2022/09/25 06:32:07;;;;;;;21.00;19.30;;;;;;;;;;5093573;28;20479;-77
2022/09/25 06:34:36;;;;;;;20.90;19.30;;;;;;;;;;5094791;28;20426;-78
2022/09/25 06:37:03;;;;;;;21.27;19.57;;;;;;;;;;5094730;28;20440;-77
2022/09/25 06:39:32;;;;;;;21.20;19.60;;;;;;;;;;5095132;28;20433;-77
2022/09/25 06:41:59;;;;;;;21.03;19.60;;;;;;;;;;5093776;28;20463;-77
2022/09/25 06:44:28;;;;;;;21.37;19.63;;;;;;;;;;5094325;28;20451;-77
2022/09/25 06:46:55;;;;;;;20.70;18.43;;;;;;;;;;5094165;28;20449;-78
2022/09/25 06:49:23;;;;;;;24.50;22.73;;;;;;;;;;5094271;28;20979;-77
2022/09/25 06:51:51;;;;;;;26.53;24.00;;;;;;;;;;5094441;28;20442;-78
2022/09/25 06:54:18;;;;;;;21.70;20.10;;;;;;;;;;5094077;28;20501;-77
2022/09/25 06:56:49;;;;;;;22.43;20.93;;;;;;;;;;5094397;28;20423;-77
2022/09/25 06:59:17;;;;;;;41.90;38.33;;;;;;;;;;5094048;28;20491;-78
2022/09/25 07:01:46;;;;;;;25.40;23.27;;;;;;;;;;5093599;28;20431;-77
2022/09/25 07:04:12;;;;;;;30.13;28.00;;;;;;;;;;5093741;28;20447;-77
2022/09/25 07:06:39;;;;;;;23.90;22.30;;;;;;;;;;5096283;28;20440;-77
2022/09/25 07:09:07;;;;;;;22.70;20.93;;;;;;;;;;5094719;28;21010;-80
2022/09/25 07:11:34;;;;;;;23.30;21.70;;;;;;;;;;5093927;28;20444;-77
2022/09/25 07:14:02;;;;;;;21.57;20.23;;;;;;;;;;5093991;28;20901;-78
2022/09/25 07:16:31;;;;;;;22.43;20.97;;;;;;;;;;5094018;28;20448;-77
2022/09/25 07:19:02;;;;;;;23.10;21.50;;;;;;;;;;5093856;28;20539;-77
2022/09/25 07:21:30;;;;;;;22.53;20.77;;;;;;;;;;5090554;28;20440;-82
2022/09/25 07:23:58;;;;;;;22.00;20.60;;;;;;;;;;5097937;28;20480;-80
2022/09/25 07:26:26;;;;;;;22.80;21.10;;;;;;;;;;5096974;28;20450;-79
2022/09/25 07:28:55;;;;;;;22.30;20.40;;;;;;;;;;5098057;28;20992;-80
2022/09/25 07:31:23;;;;;;;22.60;20.93;;;;;;;;;;5098539;28;20451;-80
2022/09/25 07:33:50;;;;;;;22.10;20.80;;;;;;;;;;5096968;28;20450;-77
2022/09/25 07:36:19;;;;;;;23.30;21.50;;;;;;;;;;5093632;28;20431;-77
2022/09/25 07:38:49;;;;;;;22.10;20.70;;;;;;;;;;5094111;28;20423;-76
2022/09/25 07:41:17;;;;;;;24.00;21.30;;;;;;;;;;5093589;28;20419;-80
2022/09/25 07:43:45;;;;;;;21.40;19.60;;;;;;;;;;5094742;28;20499;-76
2022/09/25 07:46:12;;;;;;;20.13;18.83;;;;;;;;;;5094305;28;20476;-77
2022/09/25 07:48:40;;;;;;;22.27;20.43;;;;;;;;;;5095709;28;20488;-81
2022/09/25 07:51:08;;;;;;;34.73;30.90;;;;;;;;;;5098873;28;20786;-77
2022/09/25 07:53:37;;;;;;;24.60;22.33;;;;;;;;;;5099814;28;20469;-80
2022/09/25 07:56:04;;;;;;;27.13;24.53;;;;;;;;;;5095404;28;20451;-76
2022/09/25 07:58:32;;;;;;;23.10;20.33;;;;;;;;;;5096144;28;20467;-77
2022/09/25 08:01:00;;;;;;;21.80;20.60;;;;;;;;;;5096790;28;20435;-77
2022/09/25 08:03:28;;;;;;;22.80;20.70;;;;;;;;;;5097350;28;20472;-77
2022/09/25 08:05:59;;;;;;;22.53;20.40;;;;;;;;;;5097440;28;20425;-77
2022/09/25 08:08:26;;;;;;;22.20;20.53;;;;;;;;;;5097044;28;20944;-77
2022/09/25 08:10:55;;;;;;;22.17;20.53;;;;;;;;;;5097291;28;20440;-77
2022/09/25 08:13:23;;;;;;;20.83;19.23;;;;;;;;;;5096577;28;20488;-77
2022/09/25 08:15:50;;;;;;;21.33;19.37;;;;;;;;;;5097236;28;20452;-77
2022/09/25 08:18:18;;;;;;;23.97;20.93;;;;;;;;;;5097271;28;20501;-77
2022/09/25 08:20:45;;;;;;;25.30;23.10;;;;;;;;;;5097140;28;20447;-77
2022/09/25 08:23:13;;;;;;;21.83;20.30;;;;;;;;;;5095941;28;20488;-77
2022/09/25 08:25:40;;;;;;;20.60;18.77;;;;;;;;;;5097229;28;20436;-77
2022/09/25 08:28:09;;;;;;;21.87;20.13;;;;;;;;;;5096766;28;20461;-77
2022/09/25 08:30:37;;;;;;;23.20;21.00;;;;;;;;;;5096799;28;20511;-77
2022/09/25 08:33:04;;;;;;;21.53;19.60;;;;;;;;;;5095882;28;20484;-77
2022/09/25 08:35:31;;;;;;;21.73;20.23;;;;;;;;;;5096648;28;20455;-77
2022/09/25 08:37:59;;;;;;;19.40;18.20;;;;;;;;;;5096705;28;20453;-77
2022/09/25 08:40:29;;;;;;;21.40;19.53;;;;;;;;;;5096866;28;20450;-77
2022/09/25 08:42:56;;;;;;;20.47;18.93;;;;;;;;;;5096744;28;20471;-76
2022/09/25 08:51:06;;;;;;;22.50;20.53;;;;;;;;;;5088587;28;20559;-77
2022/09/25 08:53:34;;;;;;;19.83;18.43;;;;;;;;;;5094722;28;20439;-76
2022/09/25 08:58:46;;;;;;;19.97;18.67;;;;;;;;;;5091675;28;20523;-77
2022/09/25 09:01:16;;;;;;;20.43;19.30;;;;;;;;;;5095452;28;20449;-76
2022/09/25 09:03:46;;;;;;;19.83;18.27;;;;;;;;;;5096400;28;20469;-77
2022/09/25 09:06:15;;;;;;;20.23;18.80;;;;;;;;;;5096405;28;20436;-76
2022/09/25 09:08:44;;;;;;;19.97;18.60;;;;;;;;;;5095437;28;20449;-76
2022/09/25 09:11:13;;;;;;;20.93;19.30;;;;;;;;;;5095591;28;20455;-77
2022/09/25 09:13:43;;;;;;;21.57;19.80;;;;;;;;;;5095974;28;20468;-77
2022/09/25 09:16:14;;;;;;;19.40;18.07;;;;;;;;;;5096080;28;20472;-77
2022/09/25 09:18:43;;;;;;;19.20;17.93;;;;;;;;;;5095869;28;20498;-77
2022/09/25 09:21:17;;;;;;;18.97;17.97;;;;;;;;;;5095731;28;20449;-77
2022/09/25 09:23:47;;;;;;;18.97;17.77;;;;;;;;;;5095910;28;20458;-77
2022/09/25 09:26:18;;;;;;;19.50;18.40;;;;;;;;;;5096007;28;20403;-77
2022/09/25 09:28:55;;;;;;;19.80;18.40;;;;;;;;;;5095550;28;20933;-77
2022/09/25 09:31:27;;;;;;;17.90;16.67;;;;;;;;;;5095395;28;20409;-76
2022/09/25 09:33:59;;;;;;;17.20;16.00;;;;;;;;;;5095487;28;21020;-77
2022/09/25 09:36:30;;;;;;;17.17;16.07;;;;;;;;;;5094914;28;20480;-76
2022/09/25 09:39:00;;;;;;;16.40;15.57;;;;;;;;;;5100325;28;20427;-78
2022/09/25 09:41:34;;;;;;;15.40;14.60;;;;;;;;;;5096245;28;20468;-78
2022/09/25 09:44:06;;;;;;;16.43;15.40;;;;;;;;;;5098721;28;20435;-80
2022/09/25 09:46:38;;;;;;;16.43;15.43;;;;;;;;;;5101743;28;20515;-83
2022/09/25 09:49:11;;;;;;;16.20;15.20;;;;;;;;;;5101353;28;20868;-83
2022/09/25 09:51:42;;;;;;;16.03;15.23;;;;;;;;;;5104704;28;20434;-80
2022/09/25 09:54:11;;;;;;;16.67;15.30;;;;;;;;;;5110120;28;20449;-80
2022/09/25 09:56:42;;;;;;;16.80;15.90;;;;;;;;;;5110490;28;20452;-83
2022/09/25 09:59:14;;;;;;;16.33;15.53;;;;;;;;;;5099666;28;20461;-81
2022/09/25 10:01:43;;;;;;;16.90;15.47;;;;;;;;;;5089022;28;20409;-80
2022/09/25 10:04:15;;;;;;;16.73;15.83;;;;;;;;;;5085434;28;20941;-79
2022/09/25 10:06:44;;;;;;;16.87;15.73;;;;;;;;;;5085529;28;20406;-80
2022/09/25 10:09:14;;;;;;;17.53;16.33;;;;;;;;;;5083477;28;20495;-81
2022/09/25 10:11:41;;;;;;;17.87;16.57;;;;;;;;;;5082005;28;20434;-80
2022/09/25 10:14:12;;;;;;;17.67;16.47;;;;;;;;;;5082352;28;20469;-80
2022/09/25 10:16:40;;;;;;;18.50;17.40;;;;;;;;;;5083775;28;20447;-81
2022/09/25 10:19:11;;;;;;;19.03;17.67;;;;;;;;;;5081992;28;20761;-80
2022/09/25 10:21:41;;;;;;;18.87;17.77;;;;;;;;;;5082659;28;20421;-79
2022/09/25 10:24:09;;;;;;;18.23;17.23;;;;;;;;;;5082458;28;20848;-82
2022/09/25 10:26:37;;;;;;;20.23;18.97;;;;;;;;;;5083058;28;20454;-80
2022/09/25 10:29:06;;;;;;;19.47;18.00;;;;;;;;;;5083334;28;20462;-80
2022/09/25 10:31:35;;;;;;;17.80;16.80;;;;;;;;;;5081532;28;20924;-80
2022/09/25 10:34:03;;;;;;;18.10;17.17;;;;;;;;;;5083924;28;20843;-80
2022/09/25 10:36:36;;;;;;;19.17;17.70;;;;;;;;;;5081787;28;20413;-79
2022/09/25 10:39:06;;;;;;;17.67;16.47;;;;;;;;;;5082370;28;20825;-86
2022/09/25 10:41:42;;;;;;;18.83;17.67;;;;;;;;;;5084662;28;20453;-82
2022/09/25 10:44:20;;;;;;;19.10;17.80;;;;;;;;;;5084420;28;20962;-82
2022/09/25 10:52:16;;;;;;;20.77;19.10;;;;;;;;;;5080797;28;20415;-82
2022/09/25 10:54:44;;;;;;;20.40;19.10;;;;;;;;;;5078875;28;20451;-80
2022/09/25 10:57:17;;;;;;;19.03;18.03;;;;;;;;;;5079516;28;20420;-81
2022/09/25 10:59:48;;;;;;;18.97;17.83;;;;;;;;;;5075870;28;20463;-79
2022/09/25 11:02:21;;;;;;;20.47;18.90;;;;;;;;;;5077375;28;20472;-80
2022/09/25 11:04:51;;;;;;;20.07;18.70;;;;;;;;;;5079567;28;20842;-84
2022/09/25 11:07:26;;;;;;;18.97;17.97;;;;;;;;;;5077813;28;20937;-84
2022/09/25 11:09:55;;;;;;;18.90;17.50;;;;;;;;;;5081708;28;20486;-86
2022/09/25 11:12:23;;;;;;;19.13;18.03;;;;;;;;;;5094949;28;20469;-85
2022/09/25 11:14:56;;;;;;;20.50;18.63;;;;;;;;;;5095153;28;20426;-81
2022/09/25 11:17:32;;;;;;;19.53;18.33;;;;;;;;;;5077232;28;20531;-78
2022/09/25 11:20:12;;;;;;;19.47;18.20;;;;;;;;;;5073720;28;20448;-79
2022/09/25 11:22:41;;;;;;;19.77;18.67;;;;;;;;;;5072988;28;20980;-77
2022/09/25 11:25:15;;;;;;;19.10;17.90;;;;;;;;;;5073626;28;20505;-77
2022/09/25 11:27:43;;;;;;;18.80;17.80;;;;;;;;;;5073760;28;20438;-78
2022/09/25 11:30:11;;;;;;;18.60;17.40;;;;;;;;;;5073053;28;20578;-78
2022/09/25 11:32:43;;;;;;;18.67;17.47;;;;;;;;;;5078938;28;20540;-78
2022/09/25 11:35:21;;;;;;;18.93;17.90;;;;;;;;;;5079758;28;20911;-77
2022/09/25 11:37:53;;;;;;;19.07;17.97;;;;;;;;;;5079841;28;20447;-77
2022/09/25 11:43:14;;;;;;;18.63;17.53;;;;;;;;;;5079559;28;20418;-78
2022/09/25 11:45:42;;;;;;;19.10;17.80;;;;;;;;;;5079927;28;20438;-78
2022/09/25 11:48:17;;;;;;;19.37;18.10;;;;;;;;;;5079922;28;20449;-77
2022/09/25 11:50:47;;;;;;;20.33;18.80;;;;;;;;;;5079968;28;20446;-78
2022/09/25 11:53:23;;;;;;;20.23;19.03;;;;;;;;;;5079089;28;20461;-77
2022/09/25 11:55:58;;;;;;;19.07;18.17;;;;;;;;;;5080173;28;20409;-77
2022/09/25 11:58:33;;;;;;;19.03;18.03;;;;;;;;;;5080048;28;20433;-77
2022/09/25 12:01:06;;;;;;;19.00;18.00;;;;;;;;;;5079505;28;20438;-77
2022/09/25 12:03:44;;;;;;;20.17;19.00;;;;;;;;;;5079866;28;20783;-77
2022/09/25 12:06:23;;;;;;;20.00;18.80;;;;;;;;;;5080287;28;20437;-77
2022/09/25 12:08:57;;;;;;;20.10;18.53;;;;;;;;;;5080084;28;20429;-77
2022/09/25 12:11:30;;;;;;;19.27;18.20;;;;;;;;;;5078640;28;20501;-77
2022/09/25 12:14:01;;;;;;;19.00;17.80;;;;;;;;;;5079675;28;20979;-77
2022/09/25 12:16:33;;;;;;;21.20;19.90;;;;;;;;;;5079411;28;20444;-77
2022/09/25 12:19:08;;;;;;;30.57;27.47;;;;;;;;;;5081280;28;20793;-77
2022/09/25 12:21:40;;;;;;;23.20;21.30;;;;;;;;;;5078657;28;20577;-77
2022/09/25 12:24:11;;;;;;;20.10;19.00;;;;;;;;;;5079109;28;20479;-77
2022/09/25 12:26:43;;;;;;;23.23;21.53;;;;;;;;;;5079627;28;20434;-77
2022/09/25 12:29:18;;;;;;;23.70;22.00;;;;;;;;;;5079701;28;20769;-77
2022/09/25 12:31:53;;;;;;;38.57;34.57;;;;;;;;;;5078761;28;20462;-77
2022/09/25 12:34:26;;;;;;;35.03;31.93;;;;;;;;;;5079185;28;20475;-77
2022/09/25 12:36:57;;;;;;;21.70;20.20;;;;;;;;;;5079508;28;20919;-77
2022/09/25 12:39:28;;;;;;;21.60;20.30;;;;;;;;;;5079684;28;20439;-77
2022/09/25 12:42:07;;;;;;;24.90;22.90;;;;;;;;;;5079232;28;20448;-77
2022/09/25 12:44:40;;;;;;;19.50;18.30;;;;;;;;;;5075698;28;20444;-77
2022/09/25 12:47:09;;;;;;;22.10;20.57;;;;;;;;;;5076449;28;20796;-77
2022/09/25 12:49:39;;;;;;;20.83;19.73;;;;;;;;;;5075587;28;20521;-77
2022/09/25 12:52:11;;;;;;;20.20;19.07;;;;;;;;;;5075477;28;20466;-77
2022/09/25 12:54:46;;;;;;;20.90;19.80;;;;;;;;;;5076241;28;20513;-76
2022/09/25 12:57:18;;;;;;;20.37;19.17;;;;;;;;;;5076506;28;20464;-77
2022/09/25 12:59:50;;;;;;;25.43;23.50;;;;;;;;;;5076342;28;20436;-77
2022/09/25 13:02:22;;;;;;;29.63;27.23;;;;;;;;;;5075188;28;20486;-77
2022/09/25 13:04:55;;;;;;;34.40;30.77;;;;;;;;;;5076265;28;20775;-77
2022/09/25 13:07:37;;;;;;;22.93;21.50;;;;;;;;;;5075716;28;20438;-77
2022/09/25 13:10:09;;;;;;;24.80;23.00;;;;;;;;;;5075953;28;20433;-76
2022/09/25 13:12:38;;;;;;;26.63;24.57;;;;;;;;;;5075231;28;20471;-77
2022/09/25 13:15:07;;;;;;;21.37;19.97;;;;;;;;;;5075960;28;20438;-77
2022/09/25 13:17:35;;;;;;;24.63;23.00;;;;;;;;;;5075978;28;20420;-77
2022/09/25 13:20:20;;;;;;;21.73;20.33;;;;;;;;;;5075562;28;20463;-77
2022/09/25 13:22:47;;;;;;;22.20;21.00;;;;;;;;;;5044502;28;20465;-77
2022/09/25 13:25:17;;;;;;;21.00;19.80;;;;;;;;;;5075541;28;20441;-77
2022/09/25 13:27:47;;;;;;;21.37;20.17;;;;;;;;;;5075785;28;20443;-77
2022/09/25 13:30:21;;;;;;;21.43;20.00;;;;;;;;;;5075701;28;20507;-77
2022/09/25 13:32:49;;;;;;;22.50;20.80;;;;;;;;;;5074484;28;20498;-77
2022/09/25 13:35:18;;;;;;;20.70;19.43;;;;;;;;;;5075483;28;20850;-77
2022/09/25 13:37:45;;;;;;;21.80;20.03;;;;;;;;;;5075366;28;20422;-77
2022/09/25 13:46:09;;;;;;;21.60;20.40;;;;;;;;;;5091861;27;20560;-77
2022/09/25 13:48:39;;;;;;;21.27;20.17;;;;;;;;;;5090886;28;20449;-77
2022/09/25 13:51:33;;;;;;;20.40;19.20;;;;;;;;;;5090847;28;20440;-77
2022/09/25 13:54:02;;;;;;;21.80;20.40;;;;;;;;;;5088357;28;20470;-77
2022/09/25 13:56:47;;;;;;;20.17;19.17;;;;;;;;;;5090773;28;20447;-77
2022/09/25 13:59:25;;;;;;;21.43;20.03;;;;;;;;;;5091071;28;20490;-77
2022/09/25 14:01:56;;;;;;;21.33;20.23;;;;;;;;;;5089681;28;20928;-77
2022/09/25 14:04:36;;;;;;;21.20;20.07;;;;;;;;;;5090734;28;20495;-77
2022/09/25 14:07:17;;;;;;;21.27;19.90;;;;;;;;;;5090876;28;20471;-77
2022/09/25 14:09:46;;;;;;;20.93;19.73;;;;;;;;;;5090949;28;20441;-77
2022/09/25 14:12:24;;;;;;;21.63;20.13;;;;;;;;;;5089479;28;20532;-77
2022/09/25 14:14:58;;;;;;;21.50;20.00;;;;;;;;;;5090521;28;20878;-77
2022/09/25 14:17:29;;;;;;;22.50;21.03;;;;;;;;;;5090876;28;20439;-77
2022/09/25 14:19:58;;;;;;;22.63;21.23;;;;;;;;;;5090795;28;20435;-77
2022/09/25 14:22:31;;;;;;;22.40;20.73;;;;;;;;;;5090320;28;20472;-76
2022/09/25 14:24:59;;;;;;;21.77;20.33;;;;;;;;;;5089762;28;20487;-77
2022/09/25 14:27:28;;;;;;;22.07;20.77;;;;;;;;;;5090206;28;20431;-77
2022/09/25 14:30:03;;;;;;;21.60;20.27;;;;;;;;;;5090368;28;20570;-77
2022/09/25 14:32:38;;;;;;;21.93;20.63;;;;;;;;;;5089854;28;20972;-77
2022/09/25 14:35:23;;;;;;;21.47;20.23;;;;;;;;;;5089839;28;20490;-77
2022/09/25 14:38:06;;;;;;;21.10;19.90;;;;;;;;;;5089977;28;20449;-77
2022/09/25 14:40:36;;;;;;;22.00;20.70;;;;;;;;;;5090481;28;20520;-77
2022/09/25 14:43:19;;;;;;;22.10;20.63;;;;;;;;;;5090741;28;20461;-76
2022/09/25 14:46:01;;;;;;;21.77;20.40;;;;;;;;;;5087568;28;20480;-77
2022/09/25 14:48:30;;;;;;;22.07;20.60;;;;;;;;;;5087367;28;20494;-76
2022/09/25 14:50:59;;;;;;;22.60;21.10;;;;;;;;;;5090048;28;20418;-76
2022/09/25 14:53:31;;;;;;;21.80;20.50;;;;;;;;;;5089937;28;20462;-77
2022/09/25 14:56:01;;;;;;;22.27;20.97;;;;;;;;;;5083577;28;20424;-77
2022/09/25 14:58:31;;;;;;;22.47;21.10;;;;;;;;;;5075841;28;20459;-77